createdAt,value
2023-02-12T00:01:09.182Z,8.11
2023-02-12T00:06:16.149Z,10.95
2023-02-12T00:11:21.389Z,12.17
2023-02-12T00:16:27.502Z,11.05
2023-02-12T00:21:33.988Z,13.89
2023-02-12T00:26:42.423Z,9.84
2023-02-12T00:31:48.982Z,10.75
2023-02-12T00:36:55.020Z,10.34
2023-02-12T00:42:01.479Z,16.73
2023-02-12T00:47:07.760Z,12.07
2023-02-12T00:52:14.481Z,12.17
2023-02-12T00:57:20.793Z,5.98
2023-02-12T01:02:27.299Z,9.63
2023-02-12T01:07:33.270Z,8.11
2023-02-12T01:12:39.833Z,10.14
2023-02-12T01:17:46.192Z,11.56
2023-02-12T01:22:53.669Z,12.07
2023-02-12T01:27:59.881Z,11.56
2023-02-12T01:33:07.538Z,12.07
2023-02-12T01:38:13.664Z,12.07
2023-02-12T01:43:20.055Z,16.02
2023-02-12T01:48:26.315Z,14.30
2023-02-12T01:53:35.114Z,13.89
2023-02-12T01:58:42.595Z,10.95
2023-02-12T02:03:49.343Z,13.18
2023-02-12T02:08:55.606Z,12.07
2023-02-12T02:14:03.408Z,9.02
2023-02-12T02:19:09.710Z,11.86
2023-02-12T02:24:18.228Z,17.64
2023-02-12T02:29:26.636Z,19.06
2023-02-12T02:34:34.293Z,11.66
2023-02-12T02:39:41.270Z,9.33
2023-02-12T02:44:47.730Z,11.66
2023-02-12T02:49:54.008Z,10.04
2023-02-12T02:55:01.561Z,11.97
2023-02-12T03:00:07.887Z,9.94
2023-02-12T03:05:14.635Z,11.76
2023-02-12T03:10:21.061Z,9.02
2023-02-12T03:15:27.201Z,12.88
2023-02-12T03:20:33.530Z,9.23
2023-02-12T03:25:39.846Z,10.85
2023-02-12T03:30:46.150Z,11.86
2023-02-12T03:35:53.141Z,12.07
2023-02-12T03:40:58.664Z,12.37
2023-02-12T03:46:05.974Z,8.62
2023-02-12T03:51:15.276Z,17.95
2023-02-12T03:56:22.775Z,13.69
2023-02-12T04:01:29.115Z,8.42
2023-02-12T04:06:34.937Z,13.89
2023-02-12T04:11:41.309Z,11.97
2023-02-12T04:16:47.605Z,6.39
2023-02-12T04:21:53.724Z,9.84
2023-02-12T04:27:00.175Z,6.69
2023-02-12T04:32:06.238Z,9.94
2023-02-12T04:37:12.866Z,7.50
2023-02-12T04:42:18.880Z,12.47
2023-02-12T04:47:25.299Z,6.39
2023-02-12T04:52:31.520Z,10.75
2023-02-12T04:57:37.800Z,10.95
2023-02-12T05:02:45.031Z,11.15
2023-02-12T05:07:51.331Z,6.69
2023-02-12T05:12:59.822Z,9.02
2023-02-12T05:18:06.437Z,10.04
2023-02-12T05:23:13.540Z,11.36
2023-02-12T05:28:20.187Z,9.33
2023-02-12T05:33:27.293Z,9.43
2023-02-12T05:38:34.855Z,14.60
2023-02-12T05:43:41.910Z,6.79
2023-02-12T05:48:49.502Z,9.43
2023-02-12T05:53:55.819Z,9.02
2023-02-12T05:59:02.150Z,19.06
2023-02-12T06:04:08.410Z,11.66
2023-02-12T06:09:14.691Z,17.14
2023-02-12T06:14:20.909Z,17.04
2023-02-12T06:19:27.594Z,7.81
2023-02-12T06:24:33.840Z,11.97
2023-02-12T06:29:40.257Z,18.25
2023-02-12T06:34:47.320Z,10.04
2023-02-12T06:39:53.750Z,9.53
2023-02-12T06:45:01.356Z,11.86
2023-02-12T06:50:08.616Z,11.86
2023-02-12T06:55:16.110Z,10.04
2023-02-12T07:00:23.793Z,7.00
2023-02-12T07:05:29.511Z,16.22
2023-02-12T07:10:37.185Z,11.97
2023-02-12T07:15:44.708Z,12.17
2023-02-12T07:20:54.274Z,8.42
2023-02-12T07:26:01.419Z,6.49
2023-02-12T07:31:09.008Z,12.17
2023-02-12T07:36:15.892Z,10.85
2023-02-12T07:41:22.214Z,11.86
2023-02-12T07:46:28.679Z,12.07
2023-02-12T07:51:35.917Z,10.04
2023-02-12T07:56:42.063Z,11.56
2023-02-12T08:01:48.673Z,9.33
2023-02-12T08:06:55.232Z,6.29
2023-02-12T08:12:01.774Z,11.97
2023-02-12T08:17:10.395Z,8.62
2023-02-12T08:22:18.257Z,11.86
2023-02-12T08:27:23.597Z,8.42
2023-02-12T08:32:30.388Z,6.79
2023-02-12T08:37:39.437Z,10.65
2023-02-12T08:42:46.657Z,7.10
2023-02-12T08:47:52.225Z,9.23
2023-02-12T08:52:59.789Z,11.76
2023-02-12T08:58:05.948Z,8.72
2023-02-12T09:03:13.787Z,5.78
2023-02-12T09:08:20.009Z,6.49
2023-02-12T09:13:26.473Z,9.02
2023-02-12T09:18:33.847Z,7.10
2023-02-12T09:23:40.500Z,5.98
2023-02-12T09:28:46.795Z,5.88
2023-02-12T09:33:55.462Z,8.42
2023-02-12T09:39:02.969Z,6.69
2023-02-12T09:44:10.616Z,8.21
2023-02-12T09:49:16.807Z,5.78
2023-02-12T09:54:23.040Z,9.73
2023-02-12T09:59:29.400Z,6.79
2023-02-12T10:04:36.056Z,7.10
2023-02-12T10:09:42.180Z,6.08
2023-02-12T10:14:50.494Z,5.98
2023-02-12T10:19:57.817Z,6.08
2023-02-12T10:25:05.394Z,4.87
2023-02-12T10:30:11.644Z,5.37
2023-02-12T10:35:21.794Z,5.78
2023-02-12T10:40:18.142Z,5.98
2023-02-12T10:45:24.280Z,2.54
2023-02-12T10:50:34.109Z,2.94
2023-02-12T10:55:40.226Z,5.27
2023-02-12T11:00:47.309Z,3.65
2023-02-12T11:05:53.870Z,4.46
2023-02-12T11:10:59.467Z,5.78
2023-02-12T11:16:05.731Z,6.08
2023-02-12T11:21:13.419Z,5.17
2023-02-12T11:26:20.560Z,4.87
2023-02-12T11:31:26.885Z,1.22
2023-02-12T11:36:33.120Z,1.22
2023-02-12T11:41:41.938Z,2.84
2023-02-12T11:46:48.018Z,1.12
2023-02-12T11:51:54.395Z,5.37
2023-02-12T11:57:02.785Z,1.93
2023-02-12T12:02:10.382Z,3.24
2023-02-12T12:07:22.966Z,4.77
2023-02-12T12:12:20.991Z,2.84
2023-02-12T12:17:45.160Z,5.78
2023-02-12T12:22:32.845Z,5.48
2023-02-12T12:27:38.996Z,1.01
2023-02-12T12:32:45.648Z,2.03
2023-02-12T12:37:51.861Z,0.00
2023-02-12T12:43:00.063Z,5.17
2023-02-12T12:48:07.521Z,4.26
2023-02-12T12:53:15.128Z,1.83
2023-02-12T12:58:21.240Z,1.93
2023-02-12T13:03:27.423Z,3.85
2023-02-12T13:08:33.562Z,5.78
2023-02-12T13:13:40.161Z,2.74
2023-02-12T13:18:52.838Z,3.04
2023-02-12T13:23:49.391Z,4.36
2023-02-12T13:28:55.427Z,3.35
2023-02-12T13:34:02.596Z,1.42
2023-02-12T13:39:09.572Z,0.20
2023-02-12T13:44:18.406Z,5.48
2023-02-12T13:49:24.692Z,3.55
2023-02-12T13:54:31.053Z,0.51
2023-02-12T13:59:37.063Z,2.64
2023-02-12T14:04:44.293Z,4.06
2023-02-12T14:09:52.632Z,4.56
2023-02-12T14:14:59.172Z,2.33
2023-02-12T14:20:05.511Z,3.95
2023-02-12T14:25:14.075Z,0.41
2023-02-12T14:30:21.393Z,2.94
2023-02-12T14:35:27.756Z,3.55
2023-02-12T14:40:34.139Z,3.14
2023-02-12T14:45:40.429Z,2.43
2023-02-12T14:50:46.518Z,0.51
2023-02-12T14:55:52.807Z,3.65
2023-02-12T15:00:59.509Z,1.01
2023-02-12T15:06:06.987Z,3.45
2023-02-12T15:11:13.098Z,5.27
2023-02-12T15:16:22.246Z,2.23
2023-02-12T15:21:27.074Z,5.98
2023-02-12T15:26:36.818Z,2.13
2023-02-12T15:31:42.658Z,0.00
2023-02-12T15:36:49.221Z,4.06
2023-02-12T15:41:55.531Z,1.22
2023-02-12T15:47:02.098Z,6.49
2023-02-12T15:52:08.317Z,3.04
2023-02-12T15:57:15.391Z,4.06
2023-02-12T16:02:21.537Z,2.03
2023-02-12T16:07:28.238Z,5.58
2023-02-12T16:12:35.717Z,4.16
2023-02-12T16:17:42.237Z,4.66
2023-02-12T16:22:48.625Z,6.19
2023-02-12T16:27:55.159Z,5.37
2023-02-12T16:33:01.454Z,6.59
2023-02-12T16:38:08.009Z,7.00
2023-02-12T16:43:14.180Z,5.98
2023-02-12T16:48:20.847Z,5.17
2023-02-12T16:53:26.437Z,5.98
2023-02-12T16:58:34.560Z,3.75
2023-02-12T17:03:40.620Z,5.78
2023-02-12T17:08:47.387Z,4.36
2023-02-12T17:13:55.097Z,6.79
2023-02-12T17:19:01.373Z,5.98
2023-02-12T17:24:07.686Z,7.50
2023-02-12T17:29:14.484Z,5.98
2023-02-12T17:34:20.442Z,5.58
2023-02-12T17:39:26.829Z,3.35
2023-02-12T17:44:32.844Z,5.98
2023-02-12T17:49:41.035Z,5.98
2023-02-12T17:54:48.907Z,2.33
2023-02-12T17:59:56.260Z,7.71
2023-02-12T18:05:03.413Z,5.78
2023-02-12T18:10:11.506Z,3.55
2023-02-12T18:15:16.031Z,8.31
2023-02-12T18:20:22.385Z,5.98
2023-02-12T18:25:28.491Z,6.39
2023-02-12T18:30:35.107Z,5.27
2023-02-12T18:35:42.495Z,9.53
2023-02-12T18:40:50.063Z,5.98
2023-02-12T18:45:57.944Z,6.49
2023-02-12T18:51:06.140Z,6.90
2023-02-12T18:56:12.309Z,8.52
2023-02-12T19:01:18.709Z,5.88
2023-02-12T19:06:25.911Z,5.58
2023-02-12T19:11:33.133Z,4.16
2023-02-12T19:16:39.379Z,5.88
2023-02-12T19:21:47.676Z,5.68
2023-02-12T19:26:53.785Z,6.69
2023-02-12T19:32:00.289Z,3.95
2023-02-12T19:37:06.269Z,4.56
2023-02-12T19:42:14.290Z,5.58
2023-02-12T19:47:44.488Z,7.20
2023-02-12T19:52:20.885Z,5.98
2023-02-12T19:57:28.234Z,5.07
2023-02-12T20:02:35.823Z,8.82
2023-02-12T20:07:43.784Z,6.08
2023-02-12T20:12:50.107Z,6.49
2023-02-12T20:17:58.094Z,8.11
2023-02-12T20:23:04.822Z,3.75
2023-02-12T20:28:15.509Z,7.10
2023-02-12T20:33:21.430Z,7.61
2023-02-12T20:38:30.569Z,6.19
2023-02-12T20:43:36.566Z,5.48
2023-02-12T20:48:48.481Z,5.98
2023-02-12T20:53:46.056Z,6.69
2023-02-12T20:58:55.872Z,5.88
2023-02-12T21:04:03.103Z,5.98
2023-02-12T21:09:10.210Z,5.98
2023-02-12T21:14:23.240Z,5.58
2023-02-12T21:19:24.189Z,5.98
2023-02-12T21:24:32.601Z,6.90
2023-02-12T21:29:40.784Z,5.98
2023-02-12T21:34:48.911Z,5.98
2023-02-12T21:39:53.347Z,5.98
2023-02-12T21:44:59.801Z,4.87
2023-02-12T21:50:06.098Z,6.49
2023-02-12T21:55:13.850Z,8.72
2023-02-12T22:00:20.145Z,6.08
2023-02-12T22:05:27.623Z,5.98
2023-02-12T22:10:33.863Z,6.90
2023-02-12T22:15:42.159Z,5.98
2023-02-12T22:20:48.271Z,6.29
2023-02-12T22:25:55.591Z,7.71
2023-02-12T22:31:01.717Z,6.39
2023-02-12T22:36:08.054Z,5.27
2023-02-12T22:41:14.220Z,5.17
2023-02-12T22:46:20.764Z,6.08
2023-02-12T22:51:26.838Z,8.11
2023-02-12T22:56:33.167Z,6.69
2023-02-12T23:01:39.577Z,6.49
2023-02-12T23:06:45.995Z,6.19
2023-02-12T23:11:52.010Z,8.11
2023-02-12T23:16:58.379Z,9.02
2023-02-12T23:22:05.348Z,9.43
2023-02-12T23:27:12.480Z,6.29
2023-02-12T23:32:18.612Z,9.94
2023-02-12T23:37:26.271Z,9.13
2023-02-12T23:42:33.345Z,5.98
2023-02-12T23:47:39.674Z,10.75
2023-02-12T23:52:45.936Z,5.88
2023-02-12T23:57:52.620Z,8.11
